createdAt,value
2023-01-13T00:00:05.075Z,2.70
2023-01-13T00:02:33.198Z,3.45
2023-01-13T00:04:59.591Z,3.50
2023-01-13T00:07:25.921Z,3.55
2023-01-13T00:09:52.217Z,3.72
2023-01-13T00:12:18.524Z,3.47
2023-01-13T00:14:44.845Z,3.72
2023-01-13T00:17:11.497Z,2.90
2023-01-13T00:19:37.871Z,3.90
2023-01-13T00:22:04.156Z,3.72
2023-01-13T00:24:30.416Z,3.40
2023-01-13T00:26:56.701Z,3.30
2023-01-13T00:29:23.003Z,3.53
2023-01-13T00:31:49.918Z,4.45
2023-01-13T00:34:16.218Z,3.78
2023-01-13T00:36:42.514Z,3.92
2023-01-13T00:39:08.778Z,4.63
2023-01-13T00:41:35.093Z,3.55
2023-01-13T00:44:01.385Z,4.10
2023-01-13T00:46:27.748Z,3.88
2023-01-13T00:48:54.088Z,3.45
2023-01-13T00:51:21.483Z,4.53
2023-01-13T00:53:51.722Z,2.85
2023-01-13T00:56:34.135Z,3.75
2023-01-13T00:59:04.647Z,3.25
2023-01-13T01:01:30.979Z,3.25
2023-01-13T01:03:57.324Z,3.63
2023-01-13T01:06:26.312Z,3.47
2023-01-13T01:08:53.903Z,3.42
2023-01-13T01:11:26.894Z,3.33
2023-01-13T01:13:56.445Z,3.30
2023-01-13T01:16:24.463Z,3.55
2023-01-13T01:18:52.496Z,3.58
2023-01-13T01:21:19.035Z,4.03
2023-01-13T01:23:45.509Z,4.55
2023-01-13T01:26:17.264Z,3.22
2023-01-13T01:28:44.386Z,4.03
2023-01-13T01:31:14.848Z,3.63
2023-01-13T01:33:41.408Z,3.25
2023-01-13T01:36:08.705Z,4.82
2023-01-13T01:38:35.083Z,3.67
2023-01-13T01:41:01.408Z,3.53
2023-01-13T01:43:52.804Z,4.05
2023-01-13T01:46:19.099Z,4.85
2023-01-13T01:48:45.830Z,4.60
2023-01-13T01:51:13.304Z,3.03
2023-01-13T01:53:40.326Z,3.95
2023-01-13T01:56:09.228Z,4.40
2023-01-13T01:58:50.217Z,3.70
2023-01-13T02:01:17.569Z,2.97
2023-01-13T02:03:52.055Z,4.30
2023-01-13T02:06:18.870Z,3.65
2023-01-13T02:08:46.563Z,3.47
2023-01-13T02:11:31.454Z,3.45
2023-01-13T02:13:57.960Z,3.47
2023-01-13T02:16:24.638Z,3.00
2023-01-13T02:19:16.278Z,4.25
2023-01-13T02:22:04.508Z,5.15
2023-01-13T02:25:05.503Z,3.97
2023-01-13T02:27:57.148Z,3.90
2023-01-13T02:30:26.330Z,4.38
2023-01-13T02:33:20.171Z,3.80
2023-01-13T02:35:49.358Z,4.60
2023-01-13T02:38:18.346Z,4.15
2023-01-13T02:40:59.823Z,3.38
2023-01-13T02:43:36.115Z,3.90
2023-01-13T02:46:08.618Z,5.22
2023-01-13T02:48:38.025Z,5.88
2023-01-13T02:51:09.324Z,4.15
2023-01-13T02:53:41.368Z,2.88
2023-01-13T02:56:09.833Z,7.07
2023-01-13T02:58:38.834Z,3.97
2023-01-13T03:01:05.545Z,3.50
2023-01-13T03:03:32.180Z,3.85
2023-01-13T03:06:31.799Z,3.80
2023-01-13T03:09:10.198Z,4.22
2023-01-13T03:11:56.072Z,4.00
2023-01-13T03:14:57.319Z,4.03
2023-01-13T03:17:31.510Z,3.85
2023-01-13T03:20:11.906Z,3.92
2023-01-13T03:22:49.792Z,4.75
2023-01-13T03:25:25.397Z,3.78
2023-01-13T03:27:57.373Z,4.10
2023-01-13T03:30:31.149Z,3.63
2023-01-13T03:33:04.782Z,2.70
2023-01-13T03:35:36.683Z,3.85
2023-01-13T03:38:09.072Z,4.97
2023-01-13T03:40:42.721Z,3.95
2023-01-13T03:43:15.758Z,3.45
2023-01-13T03:45:48.206Z,3.50
2023-01-13T03:48:18.943Z,3.45
2023-01-13T03:50:51.881Z,3.58
2023-01-13T03:53:27.786Z,3.63
2023-01-13T03:56:01.234Z,3.72
2023-01-13T03:58:33.508Z,3.75
2023-01-13T04:01:02.602Z,3.58
2023-01-13T04:03:52.293Z,3.47
2023-01-13T04:06:46.065Z,4.13
2023-01-13T04:09:24.482Z,2.70
2023-01-13T04:12:14.266Z,3.63
2023-01-13T04:14:41.404Z,2.80
2023-01-13T04:17:07.691Z,3.08
2023-01-13T04:19:34.061Z,3.20
2023-01-13T04:22:00.388Z,3.97
2023-01-13T04:24:26.790Z,2.53
2023-01-13T04:26:53.225Z,2.83
2023-01-13T04:29:19.667Z,2.55
2023-01-13T04:31:45.997Z,2.83
2023-01-13T04:34:12.663Z,2.92
2023-01-13T04:36:39.026Z,2.83
2023-01-13T04:39:05.354Z,2.13
2023-01-13T04:41:31.767Z,1.92
2023-01-13T04:43:58.122Z,2.90
2023-01-13T04:46:24.473Z,2.67
2023-01-13T04:48:50.793Z,2.00
2023-01-13T04:51:17.141Z,1.80
2023-01-13T04:53:43.467Z,2.03
2023-01-13T04:56:09.886Z,1.98
2023-01-13T04:58:37.410Z,2.05
2023-01-13T05:01:03.861Z,2.15
2023-01-13T05:03:30.516Z,2.30
2023-01-13T05:05:56.885Z,1.88
2023-01-13T05:08:23.190Z,2.03
2023-01-13T05:10:50.030Z,1.65
2023-01-13T05:13:16.371Z,2.20
2023-01-13T05:15:43.166Z,1.92
2023-01-13T05:18:09.870Z,2.10
2023-01-13T05:20:36.364Z,2.00
2023-01-13T05:23:03.060Z,1.70
2023-01-13T05:25:29.586Z,2.00
2023-01-13T05:27:59.778Z,1.67
2023-01-13T05:30:29.212Z,1.70
2023-01-13T05:32:56.145Z,2.65
2023-01-13T05:35:22.970Z,2.22
2023-01-13T05:37:49.529Z,1.90
2023-01-13T05:40:18.466Z,1.77
2023-01-13T05:42:44.818Z,2.47
2023-01-13T05:45:11.285Z,1.85
2023-01-13T05:47:37.670Z,2.53
2023-01-13T05:50:04.586Z,1.88
2023-01-13T05:52:31.113Z,2.03
2023-01-13T05:54:57.498Z,2.70
2023-01-13T05:57:23.840Z,2.03
2023-01-13T05:59:50.240Z,1.60
2023-01-13T06:02:16.668Z,2.33
2023-01-13T06:04:43.168Z,2.50
2023-01-13T06:07:09.556Z,1.98
2023-01-13T06:09:35.965Z,2.63
2023-01-13T06:12:02.256Z,2.22
2023-01-13T06:14:28.610Z,2.38
2023-01-13T06:16:54.997Z,3.40
2023-01-13T06:19:21.362Z,2.55
2023-01-13T06:21:47.741Z,2.63
2023-01-13T06:24:14.040Z,2.45
2023-01-13T06:26:40.795Z,2.30
2023-01-13T06:29:07.385Z,2.17
2023-01-13T06:31:39.085Z,2.20
2023-01-13T06:34:09.588Z,2.60
2023-01-13T06:36:39.722Z,2.35
2023-01-13T06:39:07.809Z,3.08
2023-01-13T06:41:34.360Z,3.15
2023-01-13T06:44:00.769Z,2.08
2023-01-13T06:46:27.151Z,2.70
2023-01-13T06:48:53.447Z,2.47
2023-01-13T06:51:19.814Z,2.00
2023-01-13T06:53:46.101Z,2.45
2023-01-13T06:56:12.391Z,2.60
2023-01-13T06:58:38.692Z,2.60
2023-01-13T07:01:05.256Z,2.83
2023-01-13T07:03:31.633Z,2.10
2023-01-13T07:05:57.946Z,2.80
2023-01-13T07:08:24.702Z,2.72
2023-01-13T07:10:51.163Z,2.03
2023-01-13T07:13:17.507Z,2.25
2023-01-13T07:15:53.098Z,2.42
2023-01-13T07:18:19.431Z,2.42
2023-01-13T07:20:52.078Z,2.30
2023-01-13T07:23:18.364Z,2.95
2023-01-13T07:25:44.676Z,2.58
2023-01-13T07:28:11.004Z,2.67
2023-01-13T07:30:38.735Z,2.22
2023-01-13T07:33:05.136Z,2.92
2023-01-13T07:35:31.430Z,2.58
2023-01-13T07:37:57.825Z,3.05
2023-01-13T07:40:24.212Z,2.38
2023-01-13T07:42:50.523Z,2.75
2023-01-13T07:45:17.003Z,2.60
2023-01-13T07:47:43.337Z,2.78
2023-01-13T07:50:10.358Z,1.77
2023-01-13T07:52:36.742Z,2.45
2023-01-13T07:55:03.191Z,2.72
2023-01-13T07:57:29.502Z,2.63
2023-01-13T07:59:55.814Z,3.53
2023-01-13T08:02:22.449Z,2.55
2023-01-13T08:04:48.956Z,1.80
2023-01-13T08:07:15.323Z,2.50
2023-01-13T08:09:41.669Z,2.38
2023-01-13T08:12:08.037Z,2.75
2023-01-13T08:14:34.490Z,2.92
2023-01-13T08:17:00.785Z,2.45
2023-01-13T08:19:27.091Z,3.95
2023-01-13T08:21:53.437Z,2.45
2023-01-13T08:24:19.850Z,2.85
2023-01-13T08:26:46.135Z,3.13
2023-01-13T08:29:14.766Z,3.40
2023-01-13T08:31:41.528Z,3.38
2023-01-13T08:34:11.093Z,1.95
2023-01-13T08:36:37.519Z,2.78
2023-01-13T08:39:03.976Z,2.67
2023-01-13T08:41:30.347Z,3.60
2023-01-13T08:43:56.676Z,2.30
2023-01-13T08:46:22.995Z,3.65
2023-01-13T08:48:49.321Z,3.10
2023-01-13T08:51:15.719Z,3.38
2023-01-13T08:53:42.133Z,3.20
2023-01-13T08:56:09.209Z,2.90
2023-01-13T08:58:35.601Z,2.33
2023-01-13T09:01:06.435Z,2.88
2023-01-13T09:03:35.382Z,3.00
2023-01-13T09:06:01.977Z,2.20
2023-01-13T09:08:28.420Z,3.03
2023-01-13T09:10:54.962Z,3.10
2023-01-13T09:13:21.348Z,3.45
2023-01-13T09:15:47.913Z,2.95
2023-01-13T09:18:14.490Z,2.88
2023-01-13T09:20:40.800Z,3.08
2023-01-13T09:23:10.101Z,2.70
2023-01-13T09:25:37.156Z,2.60
2023-01-13T09:28:03.725Z,2.97
2023-01-13T09:30:30.451Z,3.05
2023-01-13T09:33:00.017Z,2.30
2023-01-13T09:35:26.344Z,2.53
2023-01-13T09:37:52.714Z,2.90
2023-01-13T09:40:20.866Z,2.72
2023-01-13T09:42:47.176Z,2.88
2023-01-13T09:45:22.141Z,2.50
2023-01-13T09:48:13.009Z,3.05
2023-01-13T09:51:02.486Z,2.80
2023-01-13T09:53:32.259Z,3.00
2023-01-13T09:56:00.631Z,2.42
2023-01-13T09:58:27.135Z,3.50
2023-01-13T10:01:08.534Z,2.45
2023-01-13T10:03:35.995Z,2.63
2023-01-13T10:06:18.595Z,3.13
2023-01-13T10:08:46.955Z,2.58
2023-01-13T10:11:16.719Z,2.42
2023-01-13T10:13:43.791Z,2.42
2023-01-13T10:16:10.231Z,2.50
2023-01-13T10:19:14.959Z,2.45
2023-01-13T10:22:03.905Z,2.58
2023-01-13T10:24:48.318Z,2.38
2023-01-13T10:27:20.014Z,2.80
2023-01-13T10:29:46.402Z,2.10
2023-01-13T10:32:12.734Z,2.38
2023-01-13T10:34:50.837Z,3.08
2023-01-13T10:37:22.693Z,2.00
2023-01-13T10:39:49.576Z,1.98
2023-01-13T10:42:21.081Z,1.73
2023-01-13T10:44:51.821Z,2.03
2023-01-13T10:47:33.158Z,2.20
2023-01-13T10:50:13.323Z,2.65
2023-01-13T10:53:01.912Z,2.15
2023-01-13T10:55:34.369Z,1.85
2023-01-13T10:58:17.274Z,2.10
2023-01-13T11:00:43.639Z,2.08
2023-01-13T11:03:15.837Z,2.13
2023-01-13T11:05:58.254Z,2.22
2023-01-13T11:08:28.658Z,2.08
2023-01-13T11:10:57.451Z,2.20
2023-01-13T11:13:33.346Z,2.40
2023-01-13T11:16:13.799Z,2.97
2023-01-13T11:18:49.464Z,2.08
2023-01-13T11:21:35.223Z,2.10
2023-01-13T11:24:19.622Z,1.95
2023-01-13T11:27:12.072Z,2.20
2023-01-13T11:29:59.213Z,1.88
2023-01-13T11:32:27.803Z,2.40
2023-01-13T11:35:00.506Z,2.17
2023-01-13T11:37:30.939Z,1.90
2023-01-13T11:40:34.221Z,1.65
2023-01-13T11:43:14.306Z,2.08
2023-01-13T11:45:51.990Z,2.00
2023-01-13T11:48:22.242Z,1.88
2023-01-13T11:50:48.559Z,1.95
2023-01-13T11:53:47.286Z,2.28
2023-01-13T11:56:22.474Z,2.30
2023-01-13T11:59:17.146Z,2.45
2023-01-13T12:01:58.012Z,1.88
2023-01-13T12:04:43.336Z,1.92
2023-01-13T12:07:32.657Z,2.00
2023-01-13T12:10:19.394Z,2.20
2023-01-13T12:12:59.446Z,2.30
2023-01-13T12:15:41.703Z,2.40
2023-01-13T12:18:50.261Z,2.35
2023-01-13T12:21:29.665Z,2.90
2023-01-13T12:24:11.790Z,1.83
2023-01-13T12:26:45.723Z,1.60
2023-01-13T12:29:17.536Z,1.48
2023-01-13T12:31:46.365Z,1.38
2023-01-13T12:34:12.685Z,1.75
2023-01-13T12:36:42.228Z,2.10
2023-01-13T12:39:23.660Z,1.83
2023-01-13T12:41:59.196Z,1.88
2023-01-13T12:44:25.592Z,1.42
2023-01-13T12:46:54.163Z,1.70
2023-01-13T12:49:25.259Z,1.73
2023-01-13T12:51:51.555Z,1.73
2023-01-13T12:54:30.241Z,1.83
2023-01-13T12:57:00.169Z,1.88
2023-01-13T12:59:26.448Z,1.70
2023-01-13T13:02:25.146Z,1.67
2023-01-13T13:04:55.982Z,2.20
2023-01-13T13:07:35.634Z,2.10
2023-01-13T13:10:13.798Z,1.60
2023-01-13T13:12:40.061Z,1.40
2023-01-13T13:15:20.517Z,1.50
2023-01-13T13:18:03.302Z,1.75
2023-01-13T13:20:54.628Z,1.52
2023-01-13T13:23:27.976Z,1.92
2023-01-13T13:26:03.472Z,1.60
2023-01-13T13:28:37.174Z,2.20
2023-01-13T13:31:24.068Z,1.60
2023-01-13T13:34:04.763Z,1.70
2023-01-13T13:37:00.425Z,1.52
2023-01-13T13:39:29.815Z,1.95
2023-01-13T13:42:10.147Z,1.77
2023-01-13T13:44:40.285Z,1.70
2023-01-13T13:47:07.439Z,1.73
2023-01-13T13:49:45.297Z,2.58
2023-01-13T13:52:11.666Z,1.90
2023-01-13T13:54:43.049Z,1.48
2023-01-13T13:57:39.424Z,1.73
2023-01-13T14:00:15.271Z,1.95
2023-01-13T14:02:48.427Z,2.00
2023-01-13T14:05:30.152Z,1.95
2023-01-13T14:08:02.195Z,1.75
2023-01-13T14:10:35.222Z,1.50
2023-01-13T14:13:12.940Z,1.90
2023-01-13T14:15:39.804Z,1.70
2023-01-13T14:18:12.434Z,2.08
2023-01-13T14:20:39.175Z,2.08
2023-01-13T14:23:05.750Z,1.58
2023-01-13T14:25:37.472Z,1.48
2023-01-13T14:28:21.273Z,1.95
2023-01-13T14:30:48.593Z,1.65
2023-01-13T14:33:17.845Z,2.50
2023-01-13T14:36:14.359Z,1.42
2023-01-13T14:38:42.646Z,1.60
2023-01-13T14:41:11.834Z,1.60
2023-01-13T14:43:43.941Z,1.48
2023-01-13T14:46:11.214Z,1.92
2023-01-13T14:48:37.711Z,1.35
2023-01-13T14:51:07.593Z,2.35
2023-01-13T14:53:45.339Z,1.95
2023-01-13T14:56:38.652Z,1.52
2023-01-13T14:59:40.912Z,1.50
2023-01-13T15:02:25.412Z,2.20
2023-01-13T15:04:52.550Z,1.90
2023-01-13T15:07:30.988Z,1.98
2023-01-13T15:10:00.799Z,1.83
2023-01-13T15:12:39.577Z,1.83
2023-01-13T15:15:19.488Z,2.00
2023-01-13T15:17:45.996Z,1.95
2023-01-13T15:20:16.822Z,1.50
2023-01-13T15:22:43.299Z,2.88
2023-01-13T15:25:09.833Z,2.15
2023-01-13T15:27:37.554Z,1.60
2023-01-13T15:30:13.411Z,1.52
2023-01-13T15:32:39.869Z,1.42
2023-01-13T15:35:06.905Z,2.15
2023-01-13T15:37:33.240Z,2.15
2023-01-13T15:39:59.528Z,1.88
2023-01-13T15:42:26.379Z,2.10
2023-01-13T15:44:52.680Z,1.88
2023-01-13T15:47:22.318Z,1.70
2023-01-13T15:49:48.643Z,1.70
2023-01-13T15:52:21.608Z,2.35
2023-01-13T15:54:48.635Z,1.63
2023-01-13T15:57:23.665Z,1.63
2023-01-13T15:59:51.576Z,1.92
2023-01-13T16:02:17.950Z,1.50
2023-01-13T16:04:45.316Z,2.25
2023-01-13T16:07:16.020Z,2.28
2023-01-13T16:09:42.721Z,1.45
2023-01-13T16:12:09.239Z,2.30
2023-01-13T16:14:35.597Z,1.73
2023-01-13T16:17:03.297Z,1.58
2023-01-13T16:19:29.598Z,2.05
2023-01-13T16:21:55.929Z,1.40
2023-01-13T16:24:22.585Z,2.58
2023-01-13T16:26:49.011Z,1.83
2023-01-13T16:29:15.374Z,1.33
2023-01-13T16:31:41.711Z,1.90
2023-01-13T16:34:08.035Z,1.70
2023-01-13T16:36:36.094Z,1.95
2023-01-13T16:39:03.884Z,1.88
2023-01-13T16:41:30.221Z,2.00
2023-01-13T16:43:56.607Z,2.08
2023-01-13T16:46:30.993Z,1.63
2023-01-13T16:49:02.988Z,1.52
2023-01-13T16:51:29.295Z,2.00
2023-01-13T16:53:55.656Z,1.88
2023-01-13T16:56:33.697Z,3.55
2023-01-13T16:59:05.524Z,2.20
2023-01-13T17:01:34.584Z,1.73
2023-01-13T17:04:01.211Z,1.63
2023-01-13T17:06:36.721Z,2.00
2023-01-13T17:09:11.489Z,1.70
2023-01-13T17:11:37.869Z,2.15
2023-01-13T17:14:18.394Z,1.90
2023-01-13T17:16:46.518Z,1.95
2023-01-13T17:19:13.312Z,3.33
2023-01-13T17:21:40.229Z,1.90
2023-01-13T17:24:06.761Z,1.88
2023-01-13T17:26:39.563Z,1.83
2023-01-13T17:29:09.961Z,1.50
2023-01-13T17:31:36.623Z,1.52
2023-01-13T17:34:04.055Z,1.83
2023-01-13T17:36:30.818Z,1.48
2023-01-13T17:38:57.552Z,1.00
2023-01-13T17:41:25.501Z,1.50
2023-01-13T17:43:52.966Z,1.52
2023-01-13T17:46:19.950Z,1.42
2023-01-13T17:48:47.116Z,1.88
2023-01-13T17:51:15.374Z,1.50
2023-01-13T17:53:42.275Z,1.58
2023-01-13T17:56:09.714Z,2.08
2023-01-13T17:58:37.055Z,1.80
2023-01-13T18:01:08.488Z,2.50
2023-01-13T18:03:35.008Z,1.70
2023-01-13T18:06:06.883Z,2.13
2023-01-13T18:08:33.259Z,1.65
2023-01-13T18:10:59.807Z,1.80
2023-01-13T18:13:26.356Z,1.85
2023-01-13T18:16:04.016Z,1.70
2023-01-13T18:18:30.313Z,2.05
2023-01-13T18:20:56.951Z,1.75
2023-01-13T18:23:23.294Z,1.95
2023-01-13T18:25:49.687Z,1.60
2023-01-13T18:28:16.038Z,1.92
2023-01-13T18:30:42.490Z,1.75
2023-01-13T18:33:08.969Z,1.60
2023-01-13T18:35:38.344Z,1.83
2023-01-13T18:38:04.645Z,1.55
2023-01-13T18:40:31.262Z,1.33
2023-01-13T18:42:57.588Z,1.77
2023-01-13T18:45:26.981Z,1.40
2023-01-13T18:47:55.011Z,1.80
2023-01-13T18:50:21.596Z,1.70
2023-01-13T18:52:47.908Z,2.00
2023-01-13T18:55:14.327Z,1.52
2023-01-13T18:57:40.759Z,1.80
2023-01-13T19:00:13.032Z,1.65
2023-01-13T19:02:39.557Z,1.83
2023-01-13T19:05:06.583Z,1.60
2023-01-13T19:07:32.950Z,1.70
2023-01-13T19:09:59.388Z,1.92
2023-01-13T19:12:26.804Z,1.50
2023-01-13T19:14:54.442Z,1.70
2023-01-13T19:17:22.242Z,2.08
2023-01-13T19:19:55.872Z,1.80
2023-01-13T19:22:26.628Z,1.75
2023-01-13T19:24:53.453Z,1.88
2023-01-13T19:27:20.554Z,1.88
2023-01-13T19:29:51.896Z,1.70
2023-01-13T19:32:22.436Z,1.70
2023-01-13T19:34:49.828Z,2.70
2023-01-13T19:37:16.885Z,1.70
2023-01-13T19:39:43.184Z,1.75
2023-01-13T19:42:11.493Z,1.40
2023-01-13T19:44:37.900Z,1.80
2023-01-13T19:47:04.438Z,1.70
2023-01-13T19:49:30.780Z,1.75
2023-01-13T19:51:57.114Z,1.48
2023-01-13T19:54:23.806Z,1.33
2023-01-13T19:56:50.323Z,1.35
2023-01-13T19:59:16.663Z,2.30
2023-01-13T20:01:43.144Z,1.50
2023-01-13T20:04:09.463Z,1.50
2023-01-13T20:06:35.821Z,1.30
2023-01-13T20:09:02.211Z,1.58
2023-01-13T20:11:28.515Z,1.88
2023-01-13T20:13:55.799Z,1.70
2023-01-13T20:16:22.522Z,1.52
2023-01-13T20:18:50.155Z,1.33
2023-01-13T20:21:16.560Z,1.65
2023-01-13T20:23:43.623Z,1.60
2023-01-13T20:26:10.182Z,1.73
2023-01-13T20:28:36.740Z,1.63
2023-01-13T20:31:11.171Z,1.55
2023-01-13T20:33:38.370Z,2.00
2023-01-13T20:36:05.314Z,1.58
2023-01-13T20:38:31.674Z,1.50
2023-01-13T20:40:59.425Z,1.77
2023-01-13T20:43:25.812Z,2.08
2023-01-13T20:45:52.743Z,1.92
2023-01-13T20:48:19.419Z,2.08
2023-01-13T20:50:52.100Z,2.00
2023-01-13T20:53:18.501Z,1.75
2023-01-13T20:55:44.856Z,1.77
2023-01-13T20:58:11.227Z,1.95
2023-01-13T21:00:37.605Z,1.70
2023-01-13T21:03:04.179Z,1.52
2023-01-13T21:05:30.554Z,1.45
2023-01-13T21:07:56.993Z,2.20
2023-01-13T21:10:23.379Z,1.65
2023-01-13T21:12:49.788Z,1.80
2023-01-13T21:15:16.136Z,2.15
2023-01-13T21:17:46.614Z,1.90
2023-01-13T21:20:14.487Z,1.88
2023-01-13T21:22:47.921Z,1.90
2023-01-13T21:25:16.213Z,1.92
2023-01-13T21:27:42.668Z,1.65
2023-01-13T21:30:09.955Z,1.63
2023-01-13T21:32:36.298Z,1.90
2023-01-13T21:35:02.715Z,2.42
2023-01-13T21:37:29.134Z,2.00
2023-01-13T21:39:55.509Z,1.75
2023-01-13T21:42:21.902Z,2.05
2023-01-13T21:44:48.283Z,2.17
2023-01-13T21:47:16.555Z,2.10
2023-01-13T21:49:42.910Z,1.75
2023-01-13T21:52:10.088Z,2.30
2023-01-13T21:54:36.513Z,1.98
2023-01-13T21:57:03.162Z,1.80
2023-01-13T21:59:29.526Z,1.60
2023-01-13T22:02:24.212Z,1.52
2023-01-13T22:04:42.236Z,1.45
2023-01-13T22:07:08.739Z,1.40
2023-01-13T22:09:35.110Z,1.85
2023-01-13T22:12:01.511Z,1.83
2023-01-13T22:14:27.865Z,1.90
2023-01-13T22:16:54.224Z,1.58
2023-01-13T22:19:20.655Z,1.75
2023-01-13T22:21:47.063Z,1.52
2023-01-13T22:24:13.464Z,1.92
2023-01-13T22:26:39.812Z,1.88
2023-01-13T22:29:08.521Z,2.28
2023-01-13T22:31:34.932Z,1.67
2023-01-13T22:34:01.352Z,1.52
2023-01-13T22:36:27.698Z,1.90
2023-01-13T22:38:55.761Z,1.83
2023-01-13T22:41:22.712Z,1.70
2023-01-13T22:43:49.103Z,1.73
2023-01-13T22:46:15.564Z,1.98
2023-01-13T22:48:41.936Z,1.88
2023-01-13T22:51:14.834Z,1.60
2023-01-13T22:53:41.950Z,1.70
2023-01-13T22:56:19.876Z,1.48
2023-01-13T22:58:46.483Z,1.80
2023-01-13T23:01:15.572Z,1.75
2023-01-13T23:03:42.221Z,1.98
2023-01-13T23:06:08.755Z,2.50
2023-01-13T23:08:35.657Z,1.80
2023-01-13T23:11:08.898Z,1.45
2023-01-13T23:13:36.860Z,2.00
2023-01-13T23:16:05.428Z,1.90
2023-01-13T23:18:32.038Z,2.15
2023-01-13T23:21:06.438Z,2.10
2023-01-13T23:23:34.006Z,1.60
2023-01-13T23:26:01.084Z,1.63
2023-01-13T23:28:27.785Z,1.63
2023-01-13T23:30:54.197Z,2.17
2023-01-13T23:33:21.029Z,2.22
2023-01-13T23:35:57.355Z,2.25
2023-01-13T23:38:24.134Z,1.67
2023-01-13T23:40:51.368Z,1.83
2023-01-13T23:43:17.987Z,1.60
2023-01-13T23:45:44.402Z,1.60
2023-01-13T23:48:10.861Z,1.92
2023-01-13T23:50:37.264Z,1.73
2023-01-13T23:53:03.643Z,1.85
2023-01-13T23:55:29.968Z,1.80
2023-01-13T23:57:56.302Z,1.88
